Canopee — FGD2805 — position and weather

sailwx.info

Track history (hours):
 
Tides and Currents Weather Stations Pressure Air Temp Water Temp Dewpoint Dewpoint Depression Visibility Wind Speed Wind Dir Waves Ship Positions

Canopee

Last reported at 2018-Jun-10 16:11 UTC. Time now 2018-Jun-21 16:28 UTC.
Position N 47°35' W 003°01'.
Warning: this ship's position is 11 days out of date.

Length 11 m.

Type: Sailing vessel. MMSI: 227552720.

Date/timePositionNaut miles runAvg speedWind from/ knotsBaromVisibWave heightAir tempDewpointWater temp
2018-Jun-10 16:11N 47°35' W 003°01'0 2.3
2018-Jun-10 15:59N 47°35' W 003°01'2 4.8
2018-Jun-10 15:31N 47°33' W 003°01'3 6.3
2018-Jun-10 15:00N 47°30' W 003°01'2 4.7
2018-Jun-10 14:30N 47°27' W 003°01'6 5.6
2018-Jun-10 13:28N 47°24' W 003°09'2 4.8
2018-Jun-10 13:00N 47°23' W 003°12'1 1.9
2018-Jun-10 12:22N 47°23' W 003°13'0 0.0
2018-Jun-10 11:58N 47°23' W 003°13'0 0.0
2018-Jun-10 11:22N 47°23' W 003°13'1 1.9
2018-Jun-10 10:58N 47°22' W 003°12'2 3.8
2018-Jun-10 10:30N 47°23' W 003°09'2 0.1
2018-Jun-09 16:10N 47°21' W 003°09'0 2.8
2018-Jun-09 16:00N 47°21' W 003°08'7 4.5
2018-Jun-09 14:29N 47°24' W 002°59'0 0.2
2018-Jun-09 13:56N 47°24' W 002°59'0 0.0
2018-Jun-09 12:50N 47°24' W 002°59'0 1.2
2018-Jun-09 12:29N 47°24' W 002°59'2 4.8
2018-Jun-09 12:00N 47°27' W 002°59'2 4.2
2018-Jun-09 11:29N 47°29' W 002°60'2 4.8
2018-Jun-09 11:00N 47°31' W 002°60'3 5.3
2018-Jun-09 10:30N 47°34' W 003°01'  
2018-Jun-03 14:20N 47°35' W 003°02'0 0.0
2018-Jun-03 13:59N 47°35' W 003°02'0 0.0
2018-Jun-03 13:26N 47°35' W 003°02'1 3.3
2018-Jun-03 13:00N 47°34' W 003°01'2 4.5
2018-Jun-03 12:30N 47°32' W 003°01'3 6.2
2018-Jun-03 12:00N 47°29' W 003°02'3 4.9
2018-Jun-03 11:29N 47°26' W 003°03'2 3.4
2018-Jun-03 11:01N 47°25' W 003°05'2 3.6
2018-Jun-03 10:30N 47°24' W 003°07'2 4.8
2018-Jun-03 10:01N 47°22' W 003°08'1 0.1
2018-Jun-02 14:27N 47°21' W 003°09'1 1.2
2018-Jun-02 14:00N 47°21' W 003°08'2 4.2
2018-Jun-02 13:30N 47°22' W 003°06'2 4.1
2018-Jun-02 13:01N 47°23' W 003°03'2 4.1
2018-Jun-02 12:26N 47°24' W 002°60'1 2.9
2018-Jun-02 12:01N 47°25' W 003°00'3 5.1
2018-Jun-02 11:30N 47°28' W 003°00'3 5.0
2018-Jun-02 11:00N 47°30' W 003°00'1 2.8
2018-Jun-02 10:28N 47°32' W 003°01'1 2.6
2018-Jun-02 10:00N 47°33' W 003°01'1 1.6
2018-Jun-02 09:30N 47°33' W 003°00'2 3.4
2018-Jun-02 09:00N 47°35' W 003°01'1 1.1
2018-Jun-02 08:28N 47°35' W 003°02'  
Track history (hours):
 
Tides and Currents Weather Stations Pressure Air Temp Water Temp Dewpoint Dewpoint Depression Visibility Wind Speed Wind Dir Waves Ship Positions

Canopee

Last reported at 2018-Jun-10 16:11 UTC. Time now 2018-Jun-21 16:28 UTC.
Position N 47°35' W 003°01'.
Warning: this ship's position is 11 days out of date.

Length 11 m.

Type: Sailing vessel. MMSI: 227552720.

Date/timePositionNaut miles runAvg speedWind from/ knotsBaromVisibWave heightAir tempDewpointWater temp
2018-Jun-10 16:11N 47°35' W 003°01'0 2.3
2018-Jun-10 15:59N 47°35' W 003°01'2 4.8
2018-Jun-10 15:31N 47°33' W 003°01'3 6.3
2018-Jun-10 15:00N 47°30' W 003°01'2 4.7
2018-Jun-10 14:30N 47°27' W 003°01'6 5.6
2018-Jun-10 13:28N 47°24' W 003°09'2 4.8
2018-Jun-10 13:00N 47°23' W 003°12'1 1.9
2018-Jun-10 12:22N 47°23' W 003°13'0 0.0
2018-Jun-10 11:58N 47°23' W 003°13'0 0.0
2018-Jun-10 11:22N 47°23' W 003°13'1 1.9
2018-Jun-10 10:58N 47°22' W 003°12'2 3.8
2018-Jun-10 10:30N 47°23' W 003°09'2 0.1
2018-Jun-09 16:10N 47°21' W 003°09'0 2.8
2018-Jun-09 16:00N 47°21' W 003°08'7 4.5
2018-Jun-09 14:29N 47°24' W 002°59'0 0.2
2018-Jun-09 13:56N 47°24' W 002°59'0 0.0
2018-Jun-09 12:50N 47°24' W 002°59'0 1.2
2018-Jun-09 12:29N 47°24' W 002°59'2 4.8
2018-Jun-09 12:00N 47°27' W 002°59'2 4.2
2018-Jun-09 11:29N 47°29' W 002°60'2 4.8
2018-Jun-09 11:00N 47°31' W 002°60'3 5.3
2018-Jun-09 10:30N 47°34' W 003°01'  
2018-Jun-03 14:20N 47°35' W 003°02'0 0.0
2018-Jun-03 13:59N 47°35' W 003°02'0 0.0
2018-Jun-03 13:26N 47°35' W 003°02'1 3.3
2018-Jun-03 13:00N 47°34' W 003°01'2 4.5
2018-Jun-03 12:30N 47°32' W 003°01'3 6.2
2018-Jun-03 12:00N 47°29' W 003°02'3 4.9
2018-Jun-03 11:29N 47°26' W 003°03'2 3.4
2018-Jun-03 11:01N 47°25' W 003°05'2 3.6
2018-Jun-03 10:30N 47°24' W 003°07'2 4.8
2018-Jun-03 10:01N 47°22' W 003°08'1 0.1
2018-Jun-02 14:27N 47°21' W 003°09'1 1.2
2018-Jun-02 14:00N 47°21' W 003°08'2 4.2
2018-Jun-02 13:30N 47°22' W 003°06'2 4.1
2018-Jun-02 13:01N 47°23' W 003°03'2 4.1
2018-Jun-02 12:26N 47°24' W 002°60'1 2.9
2018-Jun-02 12:01N 47°25' W 003°00'3 5.1
2018-Jun-02 11:30N 47°28' W 003°00'3 5.0
2018-Jun-02 11:00N 47°30' W 003°00'1 2.8
2018-Jun-02 10:28N 47°32' W 003°01'1 2.6
2018-Jun-02 10:00N 47°33' W 003°01'1 1.6
2018-Jun-02 09:30N 47°33' W 003°00'2 3.4
2018-Jun-02 09:00N 47°35' W 003°01'1 1.1
2018-Jun-02 08:28N 47°35' W 003°02'  

Dump ship's entire track history